Have a Safe July 4th! 

Flight Track Log - Related Links

Times and Time Zones

All times are in EDT time to prevent confusion due to time zone crossing. See the RPA3457 flight status page for this flight to view local times or setup timezone preferences in your user account.

Time Position Orientation Groundspeed Altitude Reporting Facility
EDT Latitude Longitude Course Direction KTS MPH feet Rate Location/Type
Thu 07:59:00 AM 44.1768 -73.2587 195° South  Level FlightAware Approximate
Thu 07:59:28 AM 44.4500 -73.2600 195° South 204 235 6,300  Level Boston Center
Thu 08:00:00 AM 44.0796 -73.2952 195° South  Level FlightAware Approximate
Thu 08:00:28 AM 44.3728 -73.2853 193° South 250 288 10,400  Level Boston Center
Thu 08:01:00 AM 43.9818 -73.3283 194° South  Level FlightAware Approximate
Thu 08:01:28 AM 44.3019 -73.3075 193° South 294 338 13,900  Level Boston Center
Thu 08:02:00 AM 43.8842 -73.3622 195° South  Level FlightAware Approximate
Thu 08:02:28 AM 44.2183 -73.3353 193° South 300 345 17,400  Level Boston Center
Thu 08:03:00 AM 43.7871 -73.3987 195° South  Level FlightAware Approximate
Thu 08:03:28 AM 44.1431 -73.3600 193° South 295 339 20,900  Level Boston Center
Thu 08:04:00 AM 43.6899 -73.4351 195° South  Level FlightAware Approximate
Thu 08:04:28 AM 44.0700 -73.3819 192° South 277 319 23,500  Level Boston Center
Thu 08:05:28 AM 43.9925 -73.4097 194° South 282 325 25,700 2,150 Climbing Boston Center
Thu 08:06:28 AM 43.9153 -73.4344 193° South 282 325 27,800 1,900 Climbing Boston Center
Thu 08:07:28 AM 43.8297 -73.4617 193° South 282 325 29,500 1,450 Climbing Boston Center
Thu 08:08:28 AM 43.7481 -73.4892 194° South 287 330 30,700 1,100 Climbing Boston Center
Thu 08:09:28 AM 43.6728 -73.5136 193° South 304 350 31,700 650 Climbing Boston Center
Thu 08:10:28 AM 43.5872 -73.5381 192° South 314 361 32,000 150 Climbing Boston Center
Thu 08:11:28 AM 43.4931 -73.5678 193° South 314 361 32,000  Level Boston Center
Thu 08:12:28 AM 43.4158 -73.5919 193° South 319 367 32,000  Level Boston Center
Thu 08:13:28 AM 43.3322 -73.6189 193° South 319 367 32,000  Level Boston Center
Thu 08:14:28 AM 43.2464 -73.6458 193° South 319 367 32,000  Level Boston Center
Thu 08:15:28 AM 43.1606 -73.6725 193° South 319 367 32,000  Level Boston Center
Thu 08:16:28 AM 43.0644 -73.7047 194° South 319 367 32,000  Level Boston Center
Thu 08:17:28 AM 42.9786 -73.7314 193° South 319 367 32,000  Level Boston Center
Thu 08:18:28 AM 42.8931 -73.7578 193° South 319 367 32,000  Level Boston Center
Thu 08:19:28 AM 42.8072 -73.7872 194° South 319 367 32,000  Level Boston Center
Thu 08:20:28 AM 42.7172 -73.8078 190° South 319 367 32,000  Level Boston Center
Thu 08:21:28 AM 42.6236 -73.7917 173° South 325 374 32,000  Level Boston Center
Thu 08:22:28 AM 42.5344 -73.7728 171° South 332 382 32,000  Level Boston Center
Thu 08:23:28 AM 42.4406 -73.7625 175° South 332 382 32,000  Level Boston Center
Thu 08:24:28 AM 42.3450 -73.7464 173° South 337 388 32,000  Level Boston Center
Thu 08:25:28 AM 42.2492 -73.7303 173° South 343 395 32,000  Level Boston Center
Thu 08:26:28 AM 42.1614 -73.7536 191° South 337 388 32,000  Level Boston Center
Thu 08:27:28 AM 42.0775 -73.7939 200° South 327 376 32,000  Level Boston Center
Thu 08:28:28 AM 41.9917 -73.8367 200° South 327 376 32,000 -251 Level Boston Center
Thu 08:30:15 AM 41.8403 -73.9061 199° South 319 367 31,300 -536 Descending New York Center
Thu 08:31:16 AM 41.7539 -73.9464 199° South 325 374 30,500 -787 Descending New York Center
Thu 08:32:17 AM 41.6675 -73.9894 200° South 331 381 29,700 -706 Descending New York Center
Thu 08:33:15 AM 41.6042 -74.0169 198° South 331 381 29,100 -807 Descending New York Center
Thu 08:34:16 AM 41.5156 -74.0597 200° South 324 373 28,100 -1,000 Descending New York Center
Thu 08:35:15 AM 41.4353 -74.1000 201° Southwest 319 367 27,100 -950 Descending New York Center
Thu 08:36:16 AM 41.3572 -74.1375 200° South 312 359 26,200 -541 Descending New York Center
Thu 08:37:17 AM 41.2792 -74.1722 198° South 307 353 26,000 -99 Descending New York Center
Thu 08:38:17 AM 41.1906 -74.2147 200° South 323 372 26,000  Level New York Center
Thu 08:39:15 AM 41.1061 -74.2489 197° South 329 379 26,000  Level New York Center
Thu 08:40:16 AM 41.0217 -74.2914 201° Southwest 329 379 26,000  Level New York Center
Thu 08:41:17 AM 40.9392 -74.3339 201° Southwest 329 379 26,000  Level New York Center
Thu 08:42:15 AM 40.8525 -74.3703 198° South 329 379 26,000  Level New York Center
Thu 08:43:15 AM 40.7758 -74.4267 209° Southwest 329 379 26,000  Level New York Center
Thu 08:44:16 AM 40.7231 -74.5169 232° Southwest 317 365 26,000 -248 Level New York Center
Thu 08:45:16 AM 40.6883 -74.6217 246° West 317 365 25,500 -694 Descending New York Center
Thu 08:46:17 AM 40.6519 -74.7153 243° Southwest 306 352 24,600 -857 Descending New York Center
Thu 08:47:15 AM 40.6197 -74.8092 246° West 294 338 23,800 -857 Descending New York Center
Thu 08:48:16 AM 40.5650 -74.8825 226° Southwest 289 333 22,900 -843 Descending New York Center
Thu 08:49:16 AM 40.5083 -74.9528 223° Southwest 289 333 22,100 -450 Descending New York Center
Thu 08:50:16 AM 40.4517 -75.0203 222° Southwest 289 333 22,000 -50 Descending New York Center
Thu 08:51:17 AM 40.3972 -75.0906 225° Southwest 284 327 22,000  Level New York Center
Thu 08:52:15 AM 40.3403 -75.1606 223° Southwest 284 327 22,000  Level New York Center
Thu 08:53:16 AM 40.2836 -75.2303 223° Southwest 284 327 22,000  Level New York Center
Thu 08:54:15 AM 40.2286 -75.3003 224° Southwest 284 327 22,000  Level New York Center
Thu 08:55:16 AM 40.1719 -75.3672 222° Southwest 284 327 22,000  Level New York Center
Thu 08:56:17 AM 40.1150 -75.4367 223° Southwest 279 321 22,000  Level New York Center
Thu 08:57:15 AM 40.0581 -75.5061 223° Southwest 279 321 22,000 -407 Level New York Center
Thu 08:58:15 AM 39.9992 -75.5725 221° Southwest 279 321 21,200 -893 Descending New York Center
Thu 08:59:16 AM 39.9442 -75.6419 224° Southwest 279 321 20,200 -984 Descending New York Center
Thu 09:00:17 AM 39.8972 -75.7169 231° Southwest 279 321 19,200 -1,059 Descending New York Center
Thu 09:01:15 AM 39.8522 -75.7978 234° Southwest 279 321 18,100 -857 Descending New York Center
Thu 09:02:16 AM 39.8133 -75.8733 236° Southwest 271 312 17,500 -744 Descending New York Center
Thu 09:03:16 AM 39.7658 -75.9592 234° Southwest 271 312 16,600 -807 Descending New York Center
Thu 09:04:15 AM 39.7292 -76.0372 239° Southwest 271 312 15,900 -706 Descending New York Center
Thu 09:05:15 AM 39.6858 -76.1150 234° Southwest 271 312 15,200 -700 Descending New York Center
Thu 09:06:15 AM 39.6494 -76.1825 235° Southwest 271 312 14,500 -645 Descending New York Center
Thu 09:07:16 AM 39.6081 -76.2656 237° Southwest 271 312 13,900 -712 Descending New York Center
Thu 09:08:13 AM 39.5500 -76.3333 222° Southwest 278 320 13,100 -804 Descending Potomac TRACON
Thu 09:09:08 AM 39.4833 -76.3833 210° Southwest 280 322 12,400 -574 Descending Potomac TRACON
Thu 09:10:08 AM 39.4167 -76.4500 218° Southwest 286 329 12,000 -200 Descending Potomac TRACON
Thu 09:11:08 AM 39.3667 -76.5000 218° Southwest 282 325 12,000  Level Potomac TRACON
Thu 09:12:02 AM 39.3000 -76.5500 210° Southwest 277 319 12,000 -421 Level Potomac TRACON
Thu 09:13:02 AM 39.2333 -76.6167 218° Southwest 282 325 11,200 -992 Descending Potomac TRACON
Thu 09:14:03 AM 39.1667 -76.6667 210° Southwest 270 311 10,000 -595 Descending Potomac TRACON
Thu 09:15:03 AM 39.1167 -76.7333 226° Southwest 266 306 10,000  Level Potomac TRACON
Thu 09:15:57 AM 39.0667 -76.7833 218° Southwest 265 305 10,000 -895 Level Potomac TRACON
Thu 09:16:57 AM 39.0167 -76.8500 226° Southwest 267 307 8,300 -1,835 Descending Potomac TRACON
Thu 09:17:58 AM 38.9500 -76.9167 218° Southwest 268 308 6,300 -1,200 Descending Potomac TRACON
Thu 09:18:52 AM 38.9000 -76.9500 207° Southwest 277 319 6,000 -1,263 Descending Potomac TRACON
Thu 09:19:52 AM 38.8167 -76.9500 180° South 279 321 3,900 -1,550 Descending Potomac TRACON
Thu 09:20:52 AM 38.7500 -76.9500 180° South 246 283 2,900 -783 Descending Potomac TRACON
Thu 09:21:47 AM 38.7333 -76.9833 237° Southwest 183 211 2,400 -545 Descending Potomac TRACON

Login

Don't have an account? Register now (free) for customized features, flight alerts, and more!